createdAt,value
2023-01-09T00:01:49.990Z,90.25
2023-01-09T00:04:20.190Z,90.59
2023-01-09T00:06:54.435Z,90.86
2023-01-09T00:09:25.829Z,91.00
2023-01-09T00:11:55.856Z,90.91
2023-01-09T00:14:25.922Z,91.16
2023-01-09T00:16:57.489Z,91.48
2023-01-09T00:19:27.458Z,91.52
2023-01-09T00:21:56.430Z,91.73
2023-01-09T00:24:25.498Z,91.90
2023-01-09T00:26:54.594Z,92.11
2023-01-09T00:29:23.665Z,92.25
2023-01-09T00:31:52.750Z,92.41
2023-01-09T00:34:21.795Z,92.75
2023-01-09T00:36:55.606Z,92.78
2023-01-09T00:39:24.560Z,92.79
2023-01-09T00:41:57.068Z,92.88
2023-01-09T00:44:34.625Z,93.19
2023-01-09T00:47:14.786Z,93.09
2023-01-09T00:49:45.472Z,93.21
2023-01-09T00:52:15.818Z,93.41
2023-01-09T00:54:45.615Z,93.44
2023-01-09T00:57:15.680Z,93.46
2023-01-09T00:59:45.152Z,93.30
2023-01-09T01:02:14.111Z,93.25
2023-01-09T01:05:01.859Z,93.06
2023-01-09T01:07:40.356Z,93.11
2023-01-09T01:10:11.560Z,93.33
2023-01-09T01:12:41.229Z,93.48
2023-01-09T01:15:10.959Z,93.75
2023-01-09T01:17:41.601Z,94.01
2023-01-09T01:20:16.876Z,94.29
2023-01-09T01:22:46.715Z,94.83
2023-01-09T01:25:17.440Z,94.94
2023-01-09T01:27:46.497Z,95.01
2023-01-09T01:30:17.270Z,94.97
2023-01-09T01:32:47.072Z,94.92
2023-01-09T01:35:16.103Z,95.36
2023-01-09T01:37:45.127Z,95.74
2023-01-09T01:40:14.357Z,95.94
2023-01-09T01:42:47.412Z,96.25
2023-01-09T01:45:16.067Z,96.25
2023-01-09T01:47:49.462Z,96.23
2023-01-09T01:50:42.464Z,96.00
2023-01-09T01:53:28.293Z,96.11
2023-01-09T01:56:26.867Z,96.10
2023-01-09T01:59:18.749Z,96.02
2023-01-09T02:01:52.794Z,95.99
2023-01-09T02:04:22.199Z,95.73
2023-01-09T02:06:54.292Z,95.45
2023-01-09T02:09:25.786Z,95.13
2023-01-09T02:11:58.138Z,95.03
2023-01-09T02:14:31.052Z,95.18
2023-01-09T02:17:15.270Z,95.25
2023-01-09T02:20:22.887Z,95.08
2023-01-09T02:23:23.064Z,95.32
2023-01-09T02:26:23.181Z,95.52
2023-01-09T02:29:21.388Z,95.78
2023-01-09T02:31:58.320Z,95.82
2023-01-09T02:34:42.557Z,96.22
2023-01-09T02:37:17.292Z,96.17
2023-01-09T02:39:56.963Z,96.21
2023-01-09T02:42:27.525Z,96.23
2023-01-09T02:44:56.154Z,96.29
2023-01-09T02:47:24.637Z,96.30
2023-01-09T02:49:55.768Z,96.13
2023-01-09T02:52:45.133Z,96.05
2023-01-09T02:55:52.113Z,95.79
2023-01-09T02:58:34.289Z,95.88
2023-01-09T03:01:09.245Z,96.14
2023-01-09T03:04:01.458Z,96.44
2023-01-09T03:06:48.131Z,96.34
2023-01-09T03:09:23.276Z,96.31
2023-01-09T03:12:00.315Z,96.31
2023-01-09T03:14:33.907Z,96.64
2023-01-09T03:17:08.309Z,96.60
2023-01-09T03:19:39.282Z,96.53
2023-01-09T03:22:09.166Z,96.91
2023-01-09T03:24:39.544Z,97.06
2023-01-09T03:27:09.800Z,97.33
2023-01-09T03:29:38.785Z,97.52
2023-01-09T03:32:08.084Z,97.46
2023-01-09T03:34:37.283Z,97.86
2023-01-09T03:37:06.410Z,98.38
2023-01-09T03:39:35.275Z,98.45
2023-01-09T03:42:04.543Z,98.62
2023-01-09T03:44:33.315Z,98.88
2023-01-09T03:47:02.172Z,99.02
2023-01-09T03:49:30.911Z,99.16
2023-01-09T03:51:59.978Z,98.77
2023-01-09T03:54:29.062Z,98.75
2023-01-09T03:56:57.961Z,99.00
2023-01-09T03:59:27.003Z,98.93
2023-01-09T04:01:55.890Z,98.56
2023-01-09T04:04:24.907Z,98.78
2023-01-09T04:06:55.515Z,98.30
2023-01-09T04:09:24.281Z,98.17
2023-01-09T04:11:53.074Z,97.76
2023-01-09T04:14:21.586Z,97.37
2023-01-09T04:16:50.377Z,97.06
2023-01-09T04:19:19.180Z,96.73
2023-01-09T04:21:47.703Z,96.34
2023-01-09T04:24:16.564Z,96.19
2023-01-09T04:26:45.378Z,96.04
2023-01-09T04:29:13.996Z,96.06
2023-01-09T04:31:42.946Z,95.97
2023-01-09T04:34:11.564Z,95.82
2023-01-09T04:36:40.470Z,95.33
2023-01-09T04:39:10.291Z,95.41
2023-01-09T04:41:51.570Z,95.35
2023-01-09T04:44:28.535Z,95.17
2023-01-09T04:46:59.570Z,94.89
2023-01-09T04:49:29.666Z,94.96
2023-01-09T04:52:01.037Z,95.08
2023-01-09T04:54:29.762Z,95.27
2023-01-09T04:56:58.664Z,95.34
2023-01-09T04:59:27.424Z,95.18
2023-01-09T05:01:58.689Z,95.12
2023-01-09T05:04:27.538Z,95.07
2023-01-09T05:06:56.442Z,95.12
2023-01-09T05:09:25.276Z,94.98
2023-01-09T05:11:54.203Z,94.92
2023-01-09T05:14:22.868Z,95.10
2023-01-09T05:16:51.506Z,95.13
2023-01-09T05:19:21.155Z,95.28
2023-01-09T05:21:49.858Z,94.91
2023-01-09T05:24:18.853Z,94.86
2023-01-09T05:26:47.902Z,94.99
2023-01-09T05:29:16.920Z,94.91
2023-01-09T05:31:45.669Z,94.87
2023-01-09T05:34:14.337Z,94.91
2023-01-09T05:36:43.157Z,95.10
2023-01-09T05:39:11.973Z,94.93
2023-01-09T05:41:41.006Z,94.98
2023-01-09T05:44:10.373Z,94.87
2023-01-09T05:46:39.413Z,94.73
2023-01-09T05:49:08.788Z,94.95
2023-01-09T05:51:40.112Z,95.37
2023-01-09T05:54:10.816Z,95.70
2023-01-09T05:56:39.998Z,96.13
2023-01-09T05:59:09.137Z,96.10
2023-01-09T06:01:38.086Z,95.86
2023-01-09T06:04:06.605Z,95.70
2023-01-09T06:06:35.622Z,95.74
2023-01-09T06:09:04.455Z,95.56
2023-01-09T06:11:36.160Z,95.68
2023-01-09T06:14:06.532Z,95.40
2023-01-09T06:16:35.161Z,94.55
2023-01-09T06:19:03.623Z,93.59
2023-01-09T06:21:33.403Z,92.90
2023-01-09T06:24:01.991Z,92.43
2023-01-09T06:26:30.762Z,91.26
2023-01-09T06:29:01.482Z,90.70
2023-01-09T06:31:30.750Z,90.58
2023-01-09T06:33:59.678Z,90.36
2023-01-09T06:36:28.333Z,90.56
2023-01-09T06:38:57.377Z,90.48
2023-01-09T06:41:26.168Z,90.79
2023-01-09T06:43:54.906Z,91.08
2023-01-09T06:46:23.938Z,91.13
2023-01-09T06:48:54.378Z,91.43
2023-01-09T06:51:23.756Z,91.32
2023-01-09T06:53:53.179Z,91.45
2023-01-09T06:56:22.260Z,91.33
2023-01-09T06:58:51.548Z,91.24
2023-01-09T07:01:21.965Z,91.56
2023-01-09T07:03:51.280Z,91.72
2023-01-09T07:06:21.128Z,91.07
2023-01-09T07:08:50.764Z,89.52
2023-01-09T07:11:20.124Z,88.25
2023-01-09T07:13:49.428Z,88.74
2023-01-09T07:16:18.658Z,89.57
2023-01-09T07:18:47.559Z,89.94
2023-01-09T07:21:16.889Z,89.93
2023-01-09T07:23:45.638Z,90.82
2023-01-09T07:26:14.387Z,91.40
2023-01-09T07:28:43.273Z,91.74
2023-01-09T07:31:12.610Z,92.20
2023-01-09T07:33:41.580Z,92.42
2023-01-09T07:36:11.477Z,92.34
2023-01-09T07:38:41.022Z,92.27
2023-01-09T07:41:10.425Z,91.66
2023-01-09T07:43:40.357Z,91.12
2023-01-09T07:46:09.196Z,91.16
2023-01-09T07:48:39.038Z,91.17
2023-01-09T07:51:09.342Z,90.56
2023-01-09T07:53:39.186Z,90.49
2023-01-09T07:56:08.757Z,90.73
2023-01-09T07:58:39.264Z,90.17
2023-01-09T08:01:08.651Z,89.59
2023-01-09T08:03:38.846Z,89.11
2023-01-09T08:06:08.156Z,88.86
2023-01-09T08:08:36.952Z,88.44
2023-01-09T08:11:05.792Z,88.25
2023-01-09T08:13:34.711Z,88.09
2023-01-09T08:16:03.611Z,87.92
2023-01-09T08:18:33.109Z,87.86
2023-01-09T08:21:02.625Z,87.70
2023-01-09T08:23:31.734Z,87.35
2023-01-09T08:26:00.586Z,86.69
2023-01-09T08:28:29.713Z,86.58
2023-01-09T08:31:00.596Z,86.59
2023-01-09T08:33:29.672Z,86.55
2023-01-09T08:36:00.916Z,86.22
2023-01-09T08:38:30.719Z,86.35
2023-01-09T08:40:59.479Z,86.35
2023-01-09T08:44:01.257Z,86.43
2023-01-09T08:46:48.699Z,86.45
2023-01-09T08:49:17.815Z,86.00
2023-01-09T08:51:47.539Z,85.89
2023-01-09T08:54:17.314Z,86.39
2023-01-09T08:56:46.981Z,86.31
2023-01-09T08:59:17.546Z,86.00
2023-01-09T09:01:47.287Z,85.76
2023-01-09T09:04:16.937Z,85.61
2023-01-09T09:06:45.933Z,84.33
2023-01-09T09:09:15.804Z,82.32
2023-01-09T09:11:44.793Z,81.88
2023-01-09T09:14:32.374Z,80.67
2023-01-09T09:17:01.159Z,80.40
2023-01-09T09:19:30.749Z,79.07
2023-01-09T09:21:59.824Z,77.37
2023-01-09T09:24:28.906Z,76.23
2023-01-09T09:26:57.519Z,75.48
2023-01-09T09:29:26.553Z,74.55
2023-01-09T09:31:55.927Z,73.98
2023-01-09T09:34:25.469Z,73.51
2023-01-09T09:36:54.838Z,72.33
2023-01-09T09:39:23.871Z,70.99
2023-01-09T09:42:15.051Z,70.23
2023-01-09T09:45:02.546Z,70.52
2023-01-09T09:48:02.771Z,70.71
2023-01-09T09:50:52.438Z,71.36
2023-01-09T09:53:43.935Z,72.16
2023-01-09T09:56:17.851Z,72.72
2023-01-09T09:59:09.817Z,74.07
2023-01-09T10:01:44.145Z,74.59
2023-01-09T10:04:18.572Z,74.97
2023-01-09T10:06:58.113Z,75.44
2023-01-09T10:09:30.115Z,76.42
2023-01-09T10:12:06.123Z,77.30
2023-01-09T10:14:35.251Z,78.10
2023-01-09T10:17:37.507Z,78.92
2023-01-09T10:20:37.739Z,79.52
2023-01-09T10:23:32.358Z,80.02
2023-01-09T10:26:41.583Z,80.83
2023-01-09T10:29:40.219Z,80.72
2023-01-09T10:32:33.261Z,80.96
2023-01-09T10:35:23.716Z,81.61
2023-01-09T10:37:55.726Z,81.72
2023-01-09T10:40:35.770Z,81.71
2023-01-09T10:43:18.070Z,81.28
2023-01-09T10:45:54.786Z,80.81
2023-01-09T10:48:36.486Z,80.90
2023-01-09T10:51:25.103Z,80.37
2023-01-09T10:53:56.709Z,80.25
2023-01-09T10:56:33.239Z,80.12
2023-01-09T10:59:02.344Z,80.84
2023-01-09T11:01:39.175Z,81.17
2023-01-09T11:04:32.144Z,81.19
2023-01-09T11:07:06.216Z,81.21
2023-01-09T11:10:02.993Z,81.35
2023-01-09T11:12:36.351Z,81.11
2023-01-09T11:15:29.409Z,81.16
2023-01-09T11:18:18.364Z,81.41
2023-01-09T11:20:47.167Z,81.43
2023-01-09T11:23:34.906Z,80.85
2023-01-09T11:26:04.273Z,81.34
2023-01-09T11:28:33.778Z,80.87
2023-01-09T11:31:03.585Z,80.35
2023-01-09T11:33:38.713Z,80.72
2023-01-09T11:36:13.780Z,80.51
2023-01-09T11:38:50.647Z,80.50
2023-01-09T11:41:22.922Z,80.61
2023-01-09T11:43:56.599Z,79.64
2023-01-09T11:46:42.187Z,79.33
2023-01-09T11:49:21.391Z,79.73
2023-01-09T11:52:12.808Z,79.72
2023-01-09T11:55:05.279Z,78.97
2023-01-09T11:57:36.164Z,79.08
2023-01-09T12:00:26.919Z,78.44
2023-01-09T12:03:19.850Z,77.81
2023-01-09T12:06:20.232Z,74.39
2023-01-09T12:08:52.127Z,68.41
2023-01-09T12:11:25.008Z,60.70
2023-01-09T12:13:57.929Z,59.94
2023-01-09T12:16:37.747Z,57.77
2023-01-09T12:19:13.341Z,55.92
2023-01-09T12:21:54.828Z,54.54
2023-01-09T12:25:38.127Z,53.76
2023-01-09T12:28:23.110Z,53.99
2023-01-09T12:31:18.592Z,54.64
2023-01-09T12:34:03.067Z,53.69
2023-01-09T12:36:53.385Z,53.79
2023-01-09T12:39:28.298Z,52.12
2023-01-09T12:42:16.524Z,51.00
2023-01-09T12:45:01.623Z,49.27
2023-01-09T12:47:47.472Z,47.79
2023-01-09T12:50:28.657Z,48.64
2023-01-09T12:53:14.416Z,49.32
2023-01-09T12:55:49.224Z,50.57
2023-01-09T12:58:42.755Z,51.93
2023-01-09T13:01:18.439Z,54.66
2023-01-09T13:04:02.139Z,57.05
2023-01-09T13:06:34.049Z,58.05
2023-01-09T13:09:13.624Z,58.39
2023-01-09T13:11:51.444Z,57.59
2023-01-09T13:14:48.199Z,57.33
2023-01-09T13:17:44.794Z,59.23
2023-01-09T13:20:32.977Z,58.73
2023-01-09T13:23:05.486Z,57.33
2023-01-09T13:25:42.319Z,57.33
2023-01-09T13:28:24.080Z,57.57
2023-01-09T13:31:11.352Z,57.88
2023-01-09T13:33:47.899Z,58.35
2023-01-09T13:36:33.658Z,58.46
2023-01-09T13:39:05.075Z,59.26
2023-01-09T13:42:07.156Z,59.57
2023-01-09T13:44:36.423Z,59.72
2023-01-09T13:47:05.897Z,59.24
2023-01-09T13:49:41.140Z,59.03
2023-01-09T13:52:38.936Z,59.91
2023-01-09T13:55:17.452Z,59.37
2023-01-09T13:58:14.116Z,59.41
2023-01-09T14:00:49.725Z,55.48
2023-01-09T14:03:38.219Z,54.69
2023-01-09T14:06:17.642Z,55.66
2023-01-09T14:08:49.618Z,55.62
2023-01-09T14:11:21.411Z,55.24
2023-01-09T14:13:59.877Z,52.36
2023-01-09T14:16:30.671Z,47.88
2023-01-09T14:19:15.424Z,47.34
2023-01-09T14:21:45.601Z,49.33
2023-01-09T14:24:26.881Z,49.58
2023-01-09T14:26:59.482Z,48.63
2023-01-09T14:29:32.248Z,47.52
2023-01-09T14:32:24.480Z,46.89
2023-01-09T14:34:59.042Z,46.09
2023-01-09T14:37:31.301Z,46.03
2023-01-09T14:40:00.908Z,43.66
2023-01-09T14:42:33.285Z,42.33
2023-01-09T14:45:14.858Z,40.93
2023-01-09T14:47:46.649Z,40.97
2023-01-09T14:50:35.261Z,40.99
2023-01-09T14:53:22.985Z,40.59
2023-01-09T14:55:54.660Z,39.84
2023-01-09T14:58:30.712Z,38.44
2023-01-09T15:01:15.437Z,38.73
2023-01-09T15:03:52.121Z,38.99
2023-01-09T15:06:27.981Z,38.93
2023-01-09T15:09:03.709Z,38.47
2023-01-09T15:11:36.040Z,38.72
2023-01-09T15:14:06.241Z,39.43
2023-01-09T15:16:36.903Z,41.28
2023-01-09T15:19:09.843Z,42.87
2023-01-09T15:21:40.126Z,44.07
2023-01-09T15:24:21.924Z,45.05
2023-01-09T15:26:56.052Z,45.64
2023-01-09T15:29:27.433Z,46.24
2023-01-09T15:32:05.949Z,47.03
2023-01-09T15:34:37.768Z,47.39
2023-01-09T15:37:20.560Z,48.18
2023-01-09T15:39:51.449Z,48.88
2023-01-09T15:42:45.691Z,49.56
2023-01-09T15:45:37.733Z,50.66
2023-01-09T15:48:19.038Z,51.55
2023-01-09T15:50:51.118Z,52.02
2023-01-09T15:53:23.531Z,52.52
2023-01-09T15:56:25.144Z,53.27
2023-01-09T15:58:55.552Z,54.09
2023-01-09T16:01:31.245Z,55.19
2023-01-09T16:04:16.230Z,55.69
2023-01-09T16:06:49.332Z,55.80
2023-01-09T16:09:29.198Z,56.31
2023-01-09T16:12:03.117Z,56.56
2023-01-09T16:14:38.882Z,56.93
2023-01-09T16:17:16.738Z,56.97
2023-01-09T16:19:50.120Z,56.84
2023-01-09T16:22:25.292Z,56.76
2023-01-09T16:25:00.346Z,57.09
2023-01-09T16:27:34.553Z,57.25
2023-01-09T16:30:07.700Z,57.77
2023-01-09T16:32:48.287Z,57.89
2023-01-09T16:35:20.831Z,58.50
2023-01-09T16:37:50.395Z,59.41
2023-01-09T16:40:22.158Z,60.48
2023-01-09T16:43:01.933Z,61.50
2023-01-09T16:45:34.591Z,61.73
2023-01-09T16:48:18.102Z,61.95
2023-01-09T16:50:48.515Z,62.30
2023-01-09T16:53:19.083Z,62.99
2023-01-09T16:55:48.318Z,63.26
2023-01-09T16:58:25.807Z,63.25
2023-01-09T17:00:55.493Z,63.55
2023-01-09T17:03:25.218Z,64.03
2023-01-09T17:05:57.001Z,64.07
2023-01-09T17:08:29.895Z,63.98
2023-01-09T17:10:59.604Z,63.77
2023-01-09T17:13:29.490Z,64.03
2023-01-09T17:16:00.509Z,64.32
2023-01-09T17:18:30.198Z,64.38
2023-01-09T17:20:59.792Z,64.25
2023-01-09T17:23:29.945Z,64.38
2023-01-09T17:26:19.216Z,64.01
2023-01-09T17:28:51.805Z,64.21
2023-01-09T17:31:22.305Z,64.14
2023-01-09T17:33:52.650Z,64.50
2023-01-09T17:36:31.641Z,64.62
2023-01-09T17:39:03.144Z,64.84
2023-01-09T17:41:35.533Z,64.91
2023-01-09T17:44:06.644Z,64.64
2023-01-09T17:46:38.258Z,64.47
2023-01-09T17:49:10.323Z,63.58
2023-01-09T17:51:39.988Z,63.50
2023-01-09T17:54:09.814Z,63.88
2023-01-09T17:56:44.205Z,63.43
2023-01-09T17:59:15.305Z,62.75
2023-01-09T18:01:46.046Z,63.05
2023-01-09T18:04:15.603Z,62.08
2023-01-09T18:06:45.091Z,62.32
2023-01-09T18:09:17.471Z,61.93
2023-01-09T18:11:48.659Z,61.49
2023-01-09T18:14:18.197Z,59.92
2023-01-09T18:16:47.767Z,60.07
2023-01-09T18:19:16.999Z,60.35
2023-01-09T18:21:47.465Z,60.46
2023-01-09T18:24:16.400Z,59.98
2023-01-09T18:26:46.214Z,59.47
2023-01-09T18:29:15.833Z,59.62
2023-01-09T18:31:46.084Z,59.52
2023-01-09T18:34:15.023Z,58.84
2023-01-09T18:36:45.054Z,58.93
2023-01-09T18:39:13.851Z,59.16
2023-01-09T18:41:43.448Z,59.18
2023-01-09T18:44:12.834Z,59.65
2023-01-09T18:46:44.254Z,59.66
2023-01-09T18:49:13.151Z,60.03
2023-01-09T18:51:43.492Z,59.96
2023-01-09T18:54:13.496Z,59.75
2023-01-09T18:56:43.033Z,59.69
2023-01-09T18:59:14.180Z,59.73
2023-01-09T19:01:44.520Z,60.04
2023-01-09T19:04:14.331Z,59.81
2023-01-09T19:06:44.600Z,59.46
2023-01-09T19:09:14.669Z,59.57
2023-01-09T19:11:45.209Z,59.88
2023-01-09T19:14:15.260Z,60.13
2023-01-09T19:16:45.529Z,60.05
2023-01-09T19:19:14.434Z,59.89
2023-01-09T19:21:44.555Z,59.53
2023-01-09T19:24:13.684Z,59.21
2023-01-09T19:26:43.129Z,59.21
2023-01-09T19:29:12.470Z,59.15
2023-01-09T19:31:42.405Z,59.42
2023-01-09T19:34:13.276Z,59.47
2023-01-09T19:36:44.302Z,59.67
2023-01-09T19:39:16.059Z,59.85
2023-01-09T19:41:45.936Z,60.75
2023-01-09T19:44:15.671Z,61.60
2023-01-09T19:46:45.742Z,62.18
2023-01-09T19:49:14.752Z,62.65
2023-01-09T19:51:43.807Z,62.90
2023-01-09T19:54:13.053Z,63.31
2023-01-09T19:56:44.459Z,63.82
2023-01-09T19:59:16.283Z,64.15
2023-01-09T20:01:48.616Z,64.04
2023-01-09T20:04:19.288Z,63.94
2023-01-09T20:06:50.835Z,64.10
2023-01-09T20:09:22.732Z,64.79
2023-01-09T20:11:52.409Z,64.73
2023-01-09T20:14:23.374Z,64.42
2023-01-09T20:16:54.689Z,63.72
2023-01-09T20:19:24.690Z,63.09
2023-01-09T20:21:54.484Z,63.04
2023-01-09T20:24:23.815Z,63.20
2023-01-09T20:26:53.973Z,62.04
2023-01-09T20:29:24.092Z,61.36
2023-01-09T20:31:53.099Z,61.64
2023-01-09T20:34:23.334Z,61.61
2023-01-09T20:36:52.902Z,61.55
2023-01-09T20:39:22.981Z,61.44
2023-01-09T20:41:52.583Z,61.50
2023-01-09T20:44:21.666Z,61.36
2023-01-09T20:46:54.337Z,61.69
2023-01-09T20:49:23.336Z,61.86
2023-01-09T20:51:53.376Z,62.46
2023-01-09T20:54:23.193Z,62.65
2023-01-09T20:56:53.431Z,62.02
2023-01-09T20:59:23.688Z,61.78
2023-01-09T21:01:53.950Z,61.75
2023-01-09T21:04:23.855Z,62.16
2023-01-09T21:06:53.111Z,62.77
2023-01-09T21:09:23.601Z,62.81
2023-01-09T21:11:53.630Z,62.87
2023-01-09T21:14:22.474Z,63.36
2023-01-09T21:16:54.789Z,63.64
2023-01-09T21:19:24.983Z,64.10
2023-01-09T21:21:54.367Z,64.41
2023-01-09T21:24:23.445Z,64.61
2023-01-09T21:26:53.561Z,64.90
2023-01-09T21:29:23.531Z,64.90
2023-01-09T21:31:53.679Z,65.23
2023-01-09T21:34:24.374Z,65.20
2023-01-09T21:36:54.012Z,65.17
2023-01-09T21:39:22.815Z,65.43
2023-01-09T21:42:10.905Z,65.61
2023-01-09T21:44:58.590Z,66.29
2023-01-09T21:47:27.924Z,66.61
2023-01-09T21:49:57.601Z,66.80
2023-01-09T21:52:26.577Z,66.86
2023-01-09T21:54:56.104Z,67.27
2023-01-09T21:57:25.518Z,67.59
2023-01-09T21:59:54.188Z,67.49
2023-01-09T22:02:23.189Z,67.69
2023-01-09T22:04:52.197Z,67.89
2023-01-09T22:07:22.004Z,68.08
2023-01-09T22:09:51.908Z,68.24
2023-01-09T22:12:21.172Z,67.95
2023-01-09T22:14:50.266Z,67.67
2023-01-09T22:17:19.700Z,67.87
2023-01-09T22:19:49.018Z,68.14
2023-01-09T22:22:17.966Z,67.94
2023-01-09T22:24:47.994Z,67.70
2023-01-09T22:27:17.110Z,67.88
2023-01-09T22:29:46.147Z,68.49
2023-01-09T22:32:15.386Z,68.69
2023-01-09T22:34:44.181Z,68.82
2023-01-09T22:37:13.384Z,68.92
2023-01-09T22:39:42.731Z,69.10
2023-01-09T22:42:12.668Z,69.31
2023-01-09T22:44:43.252Z,69.51
2023-01-09T22:47:12.537Z,69.51
2023-01-09T22:49:52.436Z,69.69
2023-01-09T22:52:22.539Z,70.16
2023-01-09T22:54:52.502Z,70.33
2023-01-09T22:57:22.223Z,70.64
2023-01-09T22:59:51.166Z,70.61
2023-01-09T23:02:20.382Z,70.85
2023-01-09T23:04:49.603Z,71.13
2023-01-09T23:07:18.394Z,71.18
2023-01-09T23:09:47.604Z,71.05
2023-01-09T23:12:19.085Z,70.94
2023-01-09T23:14:48.070Z,71.22
2023-01-09T23:17:17.659Z,71.60
2023-01-09T23:19:47.854Z,71.74
2023-01-09T23:22:17.901Z,71.87
2023-01-09T23:24:47.262Z,71.95
2023-01-09T23:27:17.139Z,72.34
2023-01-09T23:29:46.143Z,72.55
2023-01-09T23:32:14.849Z,72.77
2023-01-09T23:34:45.639Z,72.49
2023-01-09T23:37:14.936Z,72.57
2023-01-09T23:39:43.980Z,72.66
2023-01-09T23:42:31.306Z,72.88
2023-01-09T23:45:01.200Z,72.88
2023-01-09T23:47:30.926Z,73.03
2023-01-09T23:50:00.062Z,72.88
2023-01-09T23:52:29.269Z,72.90
2023-01-09T23:54:58.449Z,72.99
2023-01-09T23:57:27.143Z,73.12
2023-01-09T23:59:56.303Z,72.91
